Time;durP1;ratioP1;P1;durP2;ratioP2;P2;SDS_P1;SDS_P2;PMS_P1;PMS_P2;Temp;Humidity;BMP_temperature;BMP_pressure;BME280_temperature;BME280_humidity;BME280_pressure;Samples;Min_cycle;Max_cycle;Signal;HPM_P1;HPM_P2
2021/04/18 00:01:38;;;;;;;10.43;6.82;;;;;;;7.72;66.90;99936.25;5049479;28;20120;-22
2021/04/18 00:04:05;;;;;;;10.73;6.80;;;;;;;7.63;67.49;99936.44;5049874;28;20858;-22
2021/04/18 00:06:32;;;;;;;10.30;6.78;;;;;;;7.88;66.66;99941.16;5031799;28;20036;-22
2021/04/18 00:08:58;;;;;;;12.02;7.07;;;;;;;8.04;67.15;99956.69;5032080;28;20029;-22
2021/04/18 00:11:23;;;;;;;10.05;6.53;;;;;;;7.83;67.38;99927.69;5049271;28;20036;-23
2021/04/18 00:13:49;;;;;;;12.57;7.78;;;;;;;7.85;67.58;99925.66;5031834;28;20032;-22
2021/04/18 00:16:14;;;;;;;10.48;6.93;;;;;;;7.75;66.72;99926.03;5049008;28;20033;-22
2021/04/18 00:18:40;;;;;;;10.75;7.20;;;;;;;7.75;67.21;99925.25;5049411;28;20029;-22
2021/04/18 00:21:06;;;;;;;12.18;7.03;;;;;;;7.53;67.61;99924.59;5048956;28;20086;-22
2021/04/18 00:23:31;;;;;;;14.27;7.05;;;;;;;7.65;67.66;99926.44;5049075;28;20037;-22
2021/04/18 00:25:57;;;;;;;11.50;6.90;;;;;;;7.85;66.97;99941.56;5049050;28;20028;-22
2021/04/18 00:28:23;;;;;;;12.50;7.32;;;;;;;8.08;66.49;99925.22;5048802;28;20040;-22
2021/04/18 00:30:50;;;;;;;9.90;7.15;;;;;;;8.04;66.11;99932.78;5048876;28;20061;-22
2021/04/18 00:33:16;;;;;;;9.93;7.20;;;;;;;8.15;66.14;99938.47;5049012;28;20040;-22
2021/04/18 00:35:41;;;;;;;10.55;6.82;;;;;;;8.11;65.55;99934.59;5049031;28;20033;-22
2021/04/18 00:38:07;;;;;;;11.75;7.20;;;;;;;7.99;65.49;99935.25;5048962;28;20037;-21
2021/04/18 00:40:32;;;;;;;13.00;7.45;;;;;;;8.07;65.78;99933.38;5048880;28;20108;-20
2021/04/18 00:42:58;;;;;;;10.25;6.95;;;;;;;8.27;65.29;99934.19;5049163;28;20041;-21
2021/04/18 00:45:23;;;;;;;12.23;7.35;;;;;;;8.06;65.74;99921.94;5048686;28;20060;-21
2021/04/18 00:47:53;;;;;;;10.88;7.47;;;;;;;8.12;65.41;99925.63;5049017;28;20196;-22
2021/04/18 00:50:26;;;;;;;11.35;6.78;;;;;;;8.13;65.72;99927.25;5048045;28;20128;-21
2021/04/18 00:52:51;;;;;;;10.18;7.30;;;;;;;8.03;64.84;99899.28;5048577;28;20024;-22
2021/04/18 00:55:17;;;;;;;10.93;7.22;;;;;;;8.36;64.31;99922.31;5048448;28;20115;-22
2021/04/18 00:57:43;;;;;;;14.73;8.30;;;;;;;8.02;65.67;99948.09;5014209;28;20453;-21
2021/04/18 01:00:09;;;;;;;13.68;9.20;;;;;;;8.20;64.67;99944.81;5048096;28;20044;-20
2021/04/18 01:02:35;;;;;;;15.35;8.80;;;;;;;8.08;64.97;99950.97;5048682;28;20084;-22
2021/04/18 01:05:00;;;;;;;11.60;7.85;;;;;;;8.21;64.61;99953.59;5048312;28;20060;-21
2021/04/18 01:07:26;;;;;;;10.32;6.93;;;;;;;8.05;65.23;99965.47;5047948;28;20037;-22
2021/04/18 01:09:52;;;;;;;12.13;7.75;;;;;;;8.13;65.59;99975.06;5048370;28;20033;-22
2021/04/18 01:12:18;;;;;;;10.80;7.15;;;;;;;7.71;65.76;99971.78;5047855;28;20055;-22
2021/04/18 01:14:43;;;;;;;10.82;7.07;;;;;;;7.85;66.86;99978.75;5030325;28;20029;-22
2021/04/18 01:17:09;;;;;;;11.63;7.60;;;;;;;8.01;65.73;99962.41;5048153;28;20029;-22
2021/04/18 01:19:34;;;;;;;11.02;7.40;;;;;;;8.14;65.97;99982.03;5047911;28;20032;-22
2021/04/18 01:22:00;;;;;;;12.90;7.32;;;;;;;8.27;65.55;99970.56;5048026;28;20028;-22
2021/04/18 01:24:26;;;;;;;11.60;7.18;;;;;;;8.36;64.61;99970.16;5030057;28;20091;-22
2021/04/18 01:26:51;;;;;;;10.02;6.75;;;;;;;8.13;65.48;99944.03;5048043;28;20112;-21
2021/04/18 01:29:17;;;;;;;12.07;7.18;;;;;;;8.13;64.87;99964.44;5047847;28;20029;-22
2021/04/18 01:31:43;;;;;;;10.70;6.88;;;;;;;8.40;64.51;99950.13;5047681;28;20493;-21
2021/04/18 01:34:14;;;;;;;11.40;6.93;;;;;;;8.59;64.22;99958.28;5047682;28;20086;-21
2021/04/18 01:36:46;;;;;;;11.07;7.30;;;;;;;8.66;63.69;99956.41;5047623;28;20036;-22
2021/04/18 01:39:15;;;;;;;10.15;6.38;;;;;;;8.48;64.56;99951.78;5047722;28;20119;-22
2021/04/18 01:41:40;;;;;;;;;;;;;;;8.55;64.55;99951.75;5048070;28;20028;-22
2021/04/18 01:44:11;;;;;;;9.70;6.40;;;;;;;8.31;64.80;99932.75;5029670;28;19913;-20
2021/04/18 01:46:40;;;;;;;9.30;6.70;;;;;;;8.23;65.79;99938.28;5047835;28;20024;-22
2021/04/18 01:49:06;;;;;;;9.55;6.60;;;;;;;8.43;64.44;99933.78;5047607;28;20037;-21
2021/04/18 01:51:32;;;;;;;12.80;7.75;;;;;;;8.27;64.55;99907.63;5047604;28;20057;-21
2021/04/18 01:53:57;;;;;;;9.85;6.88;;;;;;;8.44;65.00;99932.75;5047258;28;20845;-22
2021/04/18 01:56:23;;;;;;;10.32;6.65;;;;;;;8.29;64.72;99910.06;5047328;28;20119;-22
2021/04/18 01:58:48;;;;;;;12.18;7.03;;;;;;;8.54;64.75;99935.00;5047322;28;20072;-22
2021/04/18 02:01:14;;;;;;;11.77;7.03;;;;;;;8.69;63.53;99921.44;5047078;28;20110;-22
2021/04/18 02:03:39;;;;;;;10.60;6.93;;;;;;;8.77;63.51;99931.84;5047181;28;20100;-21
2021/04/18 02:06:05;;;;;;;10.43;7.18;;;;;;;8.58;64.25;99935.38;5047231;28;20116;-22
2021/04/18 02:08:30;;;;;;;11.00;6.65;;;;;;;8.61;63.74;99919.81;5046977;28;20025;-22
2021/04/18 02:10:56;;;;;;;9.85;6.65;;;;;;;8.87;62.99;99926.09;5047219;28;20075;-22
2021/04/18 02:13:22;;;;;;;10.63;6.80;;;;;;;8.94;62.17;99931.38;5047342;28;20064;-22
2021/04/18 02:15:47;;;;;;;9.80;7.00;;;;;;;9.12;61.87;99928.03;5046933;28;20067;-22
2021/04/18 02:18:13;;;;;;;14.73;7.50;;;;;;;9.23;61.77;99927.34;5047064;28;20064;-22
2021/04/18 02:20:38;;;;;;;11.13;6.50;;;;;;;8.98;62.04;99929.91;5046236;28;20036;-22
2021/04/18 02:23:04;;;;;;;9.90;6.53;;;;;;;8.77;62.31;99929.19;5047291;28;20040;-22
2021/04/18 02:25:29;;;;;;;11.88;6.97;;;;;;;8.33;63.62;99928.03;5046969;28;20520;-22
2021/04/18 02:27:55;;;;;;;10.88;6.50;;;;;;;8.16;64.37;99924.19;5047678;28;20951;-22
2021/04/18 02:30:21;;;;;;;10.60;6.82;;;;;;;8.16;64.90;99921.53;5046524;28;20041;-22
2021/04/18 02:32:46;;;;;;;9.80;6.53;;;;;;;7.97;65.32;99928.50;5046895;28;20029;-22
2021/04/18 02:35:13;;;;;;;9.98;6.63;;;;;;;7.79;65.82;99921.97;5046932;28;20057;-22
2021/04/18 02:37:39;;;;;;;11.65;6.68;;;;;;;7.87;65.31;99912.16;5046933;28;20456;-22
2021/04/18 02:40:05;;;;;;;9.20;6.35;;;;;;;8.07;65.23;99941.34;5047390;28;20028;-22
2021/04/18 02:42:30;;;;;;;10.88;6.90;;;;;;;8.27;64.58;99944.00;5046379;28;20032;-22
2021/04/18 02:44:56;;;;;;;13.20;7.03;;;;;;;8.45;64.33;99942.34;5046862;28;20045;-22
2021/04/18 02:47:22;;;;;;;12.07;7.60;;;;;;;8.57;63.47;99931.91;5046891;28;20037;-22
2021/04/18 02:49:47;;;;;;;9.65;6.78;;;;;;;8.65;63.25;99946.81;5046791;28;20037;-22
2021/04/18 02:52:13;;;;;;;11.13;7.28;;;;;;;8.75;63.14;99947.19;5046271;28;20106;-22
2021/04/18 02:54:38;;;;;;;13.02;7.15;;;;;;;8.74;63.13;99948.19;5028868;28;20032;-22
2021/04/18 02:57:04;;;;;;;10.40;7.32;;;;;;;8.73;63.05;99957.22;5046677;28;20033;-22
2021/04/18 02:59:30;;;;;;;11.98;7.13;;;;;;;8.72;63.59;99958.22;5029113;28;20028;-21
2021/04/18 03:01:55;;;;;;;9.93;6.72;;;;;;;8.54;64.38;99945.63;5046770;28;20067;-22
2021/04/18 03:04:21;;;;;;;10.23;7.00;;;;;;;8.31;64.45;99951.34;5046524;28;20061;-21
2021/04/18 03:06:46;;;;;;;13.40;7.57;;;;;;;8.09;65.81;99960.56;5046808;28;20071;-22
2021/04/18 03:09:12;;;;;;;10.43;7.15;;;;;;;8.19;65.37;99960.97;5029124;28;20056;-22
2021/04/18 03:11:37;;;;;;;11.45;7.38;;;;;;;8.40;65.21;99952.78;5046579;28;20028;-22
2021/04/18 03:14:03;;;;;;;12.93;7.80;;;;;;;8.52;64.56;99952.16;5046831;28;20496;-22
2021/04/18 03:16:29;;;;;;;12.45;7.53;;;;;;;8.72;63.44;99942.28;5028420;28;20029;-22
2021/04/18 03:18:54;;;;;;;11.88;7.93;;;;;;;8.41;63.37;99941.13;5046480;28;20058;-22
2021/04/18 03:21:20;;;;;;;13.70;9.15;;;;;;;8.70;63.45;99960.28;5046337;28;20067;-21
2021/04/18 03:23:45;;;;;;;17.17;10.32;;;;;;;8.61;62.77;99962.34;5046385;28;20053;-23
2021/04/18 03:26:11;;;;;;;14.73;8.77;;;;;;;8.66;62.89;99953.75;5046261;28;20044;-22
2021/04/18 03:28:36;;;;;;;12.55;8.65;;;;;;;8.73;63.22;99956.41;5046378;28;20033;-22
2021/04/18 03:31:02;;;;;;;13.50;7.63;;;;;;;8.98;62.10;99953.84;5047471;28;20036;-22
2021/04/18 03:33:28;;;;;;;12.05;7.80;;;;;;;9.35;61.46;99948.75;5049933;28;20024;-21
2021/04/18 03:35:53;;;;;;;10.80;7.28;;;;;;;9.39;61.51;99948.13;5032401;28;20037;-21
2021/04/18 03:38:19;;;;;;;11.38;7.22;;;;;;;9.25;60.80;99942.06;5049868;28;20047;-23
2021/04/18 03:40:44;;;;;;;12.00;7.32;;;;;;;9.73;60.27;99953.25;5050093;28;20532;-22
2021/04/18 03:43:10;;;;;;;12.00;7.85;;;;;;;9.75;59.52;99945.84;5050129;28;20052;-22
2021/04/18 03:45:36;;;;;;;20.98;8.43;;;;;;;9.73;59.73;99963.91;5049713;28;20071;-22
2021/04/18 03:48:02;;;;;;;14.43;8.38;;;;;;;10.01;59.52;99966.97;5049602;28;20033;-22
2021/04/18 03:50:27;;;;;;;14.20;9.45;;;;;;;10.05;59.79;99957.50;5049691;28;20171;-22
2021/04/18 03:52:55;;;;;;;13.70;9.32;;;;;;;10.20;58.73;99945.69;5049565;28;20025;-22
2021/04/18 03:55:21;;;;;;;13.85;9.02;;;;;;;9.87;59.49;99936.13;5049581;28;20060;-22
2021/04/18 03:57:47;;;;;;;54.42;35.72;;;;;;;9.72;59.63;99940.94;5049586;28;20033;-22
2021/04/18 04:00:13;;;;;;;231.00;148.93;;;;;;;9.10;61.25;99914.91;5049381;28;20036;-22
2021/04/18 04:02:38;;;;;;;34.22;22.60;;;;;;;9.29;60.82;99928.31;5049353;28;20033;-22
2021/04/18 04:05:04;;;;;;;15.85;10.27;;;;;;;8.97;61.20;99912.31;5049798;28;20044;-22
2021/04/18 04:07:30;;;;;;;20.30;15.45;;;;;;;9.09;61.09;99931.91;5049394;28;20033;-22
2021/04/18 04:09:55;;;;;;;34.85;29.80;;;;;;;9.39;60.72;99939.31;5049415;28;20036;-22
2021/04/18 04:12:22;;;;;;;38.40;33.92;;;;;;;9.49;61.62;99930.88;5049154;28;20032;-22
2021/04/18 04:14:47;;;;;;;19.55;14.18;;;;;;;9.11;62.29;99913.88;5049337;28;20037;-22
2021/04/18 04:17:13;;;;;;;25.40;20.23;;;;;;;8.96;62.78;99934.63;5048942;28;20029;-22
2021/04/18 04:19:39;;;;;;;25.98;19.27;;;;;;;8.40;64.38;99907.59;5049132;28;20037;-21
2021/04/18 04:22:04;;;;;;;17.40;12.77;;;;;;;8.33;64.60;99912.09;5049407;28;20029;-22
2021/04/18 04:24:30;;;;;;;14.90;11.02;;;;;;;8.61;64.79;99911.03;5048840;28;20040;-20
2021/04/18 04:26:56;;;;;;;23.48;18.27;;;;;;;8.43;64.36;99911.69;5031345;28;20036;-22
2021/04/18 04:29:21;;;;;;;28.45;17.92;;;;;;;8.63;63.62;99911.66;5049105;28;20083;-22
2021/04/18 04:31:47;;;;;;;25.13;12.40;;;;;;;8.62;63.19;99910.00;5030715;28;20028;-21
2021/04/18 04:34:12;;;;;;;33.72;21.25;;;;;;;8.70;63.63;99907.09;5048624;28;20033;-22
2021/04/18 04:36:38;;;;;;;22.55;14.25;;;;;;;8.89;61.96;99899.25;5048834;28;20566;-22
2021/04/18 04:39:05;;;;;;;109.35;45.75;;;;;;;8.75;62.54;99909.97;5048935;28;20469;-22
2021/04/18 04:41:31;;;;;;;42.25;18.45;;;;;;;8.80;62.56;99912.78;5048803;28;20029;-22
2021/04/18 04:43:56;;;;;;;31.33;16.45;;;;;;;8.67;62.33;99904.88;5047887;28;20041;-22
2021/04/18 04:46:22;;;;;;;20.90;11.63;;;;;;;8.95;61.87;99885.13;5048046;28;20078;-21
2021/04/18 04:48:47;;;;;;;37.08;18.55;;;;;;;8.94;62.14;99896.78;5048675;28;20110;-22
2021/04/18 04:51:13;;;;;;;27.23;16.50;;;;;;;8.87;62.26;99898.66;5048514;28;20045;-22
2021/04/18 04:53:39;;;;;;;14.10;9.30;;;;;;;9.03;61.90;99898.16;5048588;28;20033;-22
2021/04/18 04:56:04;;;;;;;12.10;7.90;;;;;;;9.05;62.21;99901.44;5030694;28;20558;-22
2021/04/18 04:58:30;;;;;;;20.27;13.07;;;;;;;8.96;62.03;99886.75;5048567;28;20501;-20
2021/04/18 05:00:56;;;;;;;11.63;9.50;;;;;;;8.67;62.93;99875.63;5048336;28;20033;-21
2021/04/18 05:03:25;;;;;;;11.27;7.95;;;;;;;8.71;63.44;99895.47;5048603;28;20076;-22
2021/04/18 05:05:52;;;;;;;15.32;9.07;;;;;;;8.53;63.56;99869.56;5048362;28;20029;-20
2021/04/18 05:08:17;;;;;;;17.25;11.57;;;;;;;8.71;64.37;99870.72;5048144;28;20029;-20
2021/04/18 05:10:43;;;;;;;16.27;10.88;;;;;;;8.62;63.84;99867.47;5048350;28;20053;-22
2021/04/18 05:13:09;;;;;;;13.70;9.13;;;;;;;8.65;63.25;99875.03;5030606;28;20094;-21
2021/04/18 05:15:34;;;;;;;22.25;18.35;;;;;;;8.75;64.37;99863.97;5048148;28;20154;-22
2021/04/18 05:18:00;;;;;;;18.17;14.15;;;;;;;8.55;64.08;99840.91;5048096;28;20455;-21
2021/04/18 05:20:25;;;;;;;16.42;12.00;;;;;;;8.59;64.86;99851.97;5047616;28;20083;-22
2021/04/18 05:22:51;;;;;;;13.98;9.18;;;;;;;8.76;63.63;99846.97;5048304;28;20040;-21
2021/04/18 05:25:17;;;;;;;15.95;11.68;;;;;;;8.75;63.08;99840.03;5047929;28;20025;-22
2021/04/18 05:27:42;;;;;;;19.25;11.60;;;;;;;9.09;63.16;99846.78;5030037;28;20037;-21
2021/04/18 05:30:08;;;;;;;19.55;11.23;;;;;;;9.46;61.52;99878.88;5047492;28;20112;-22
2021/04/18 05:32:34;;;;;;;14.57;8.68;;;;;;;9.31;62.06;99857.09;5029996;28;20576;-21
2021/04/18 05:35:00;;;;;;;18.25;12.95;;;;;;;9.43;61.83;99882.78;5047735;28;20126;-22
2021/04/18 05:37:25;;;;;;;13.15;9.40;;;;;;;9.20;62.50;99886.00;5030040;28;20033;-22
2021/04/18 05:39:51;;;;;;;11.60;8.80;;;;;;;9.03;62.71;99866.25;5047653;28;20033;-21
2021/04/18 05:42:16;;;;;;;16.65;11.60;;;;;;;9.14;63.82;99892.19;5047377;28;20036;-21
2021/04/18 05:44:42;;;;;;;18.23;13.93;;;;;;;9.08;64.18;99882.41;5047725;28;20032;-20
2021/04/18 05:47:07;;;;;;;15.73;12.32;;;;;;;9.08;63.17;99877.06;5029975;28;20067;-21
2021/04/18 05:49:34;;;;;;;22.13;12.57;;;;;;;9.16;63.39;99862.72;5047437;28;20044;-20
2021/04/18 05:51:59;;;;;;;48.10;24.75;;;;;;;8.91;63.53;99841.34;5047412;28;20850;-21
2021/04/18 05:54:25;;;;;;;370.40;152.25;;;;;;;9.30;62.34;99868.78;5047329;28;20064;-21
2021/04/18 05:56:50;;;;;;;88.00;40.10;;;;;;;10.92;64.91;99870.44;5047313;28;20508;-21
2021/04/18 05:59:16;;;;;;;73.78;43.97;;;;;;;11.80;56.58;99869.72;5029780;28;20405;-21
2021/04/18 06:01:41;;;;;;;56.45;34.00;;;;;;;13.16;57.81;99857.03;5029487;28;20119;-21
2021/04/18 06:04:07;;;;;;;46.78;27.92;;;;;;;11.72;55.60;99870.06;5046820;28;20024;-20
2021/04/18 06:06:33;;;;;;;20.30;13.15;;;;;;;11.18;56.06;99875.44;5047348;28;20033;-22
2021/04/18 06:08:58;;;;;;;28.95;20.95;;;;;;;10.90;56.97;99869.88;5047338;28;20398;-21
2021/04/18 06:11:24;;;;;;;24.60;17.27;;;;;;;10.32;57.76;99872.00;5047075;28;20119;-21
2021/04/18 06:13:49;;;;;;;23.98;16.23;;;;;;;10.38;59.06;99863.09;5047148;28;20029;-21
2021/04/18 06:16:16;;;;;;;17.33;12.38;;;;;;;10.04;59.09;99849.28;5029127;28;20040;-22
2021/04/18 06:18:41;;;;;;;13.95;9.48;;;;;;;10.27;59.50;99874.47;5047087;28;20035;-22
2021/04/18 06:21:07;;;;;;;17.48;12.57;;;;;;;10.06;59.76;99889.84;5047136;28;20063;-21
2021/04/18 06:23:32;;;;;;;24.98;16.88;;;;;;;9.64;60.47;99870.97;5047088;28;20135;-21
2021/04/18 06:25:58;;;;;;;26.25;17.55;;;;;;;9.72;60.96;99882.38;5029442;28;20021;-21
2021/04/18 06:28:24;;;;;;;14.93;10.60;;;;;;;9.88;61.14;99897.78;5046731;28;20025;-20
2021/04/18 06:30:49;;;;;;;19.92;12.05;;;;;;;9.91;61.18;99885.88;5047440;28;20040;-22
2021/04/18 06:33:15;;;;;;;19.67;13.10;;;;;;;10.39;61.23;99902.03;5046811;28;20032;-22
2021/04/18 06:35:41;;;;;;;24.30;13.48;;;;;;;10.59;60.92;99904.50;5029164;28;20114;-20
2021/04/18 06:38:06;;;;;;;18.55;10.27;;;;;;;10.53;60.14;99913.38;5046742;28;20021;-20
2021/04/18 06:40:32;;;;;;;17.65;11.90;;;;;;;10.30;61.22;99922.03;5046958;28;20037;-22
2021/04/18 06:42:58;;;;;;;17.25;10.95;;;;;;;10.42;61.72;99925.59;5046733;28;20619;-21
2021/04/18 06:45:24;;;;;;;16.85;10.70;;;;;;;10.65;61.25;99935.59;5046986;28;20477;-21
2021/04/18 06:47:49;;;;;;;16.98;11.20;;;;;;;10.72;62.12;99929.38;5046736;28;20125;-21
2021/04/18 06:50:15;;;;;;;15.07;9.57;;;;;;;10.51;62.54;99920.78;5028713;28;20041;-22
2021/04/18 06:52:40;;;;;;;15.63;10.48;;;;;;;11.12;61.38;99923.56;5046875;28;20182;-21
2021/04/18 06:55:10;;;;;;;15.98;10.48;;;;;;;11.16;61.49;99924.75;5046719;28;20107;-21
2021/04/18 06:57:36;;;;;;;15.50;9.77;;;;;;;10.96;60.71;99935.66;5046586;28;20036;-21
2021/04/18 07:00:03;;;;;;;154.07;107.63;;;;;;;11.00;61.60;99934.19;5046730;28;20029;-21
2021/04/18 07:02:32;;;;;;;27.75;23.35;;;;;;;11.11;61.34;99922.72;5046148;28;20090;-22
2021/04/18 07:05:15;;;;;;;23.27;18.15;;;;;;;11.03;61.93;99913.19;5046731;28;20473;-21
2021/04/18 07:07:42;;;;;;;52.97;36.08;;;;;;;10.95;62.45;99928.69;5050627;28;20025;-21
2021/04/18 07:10:13;;;;;;;57.65;31.25;;;;;;;10.76;62.66;99914.56;5050331;28;20032;-21
2021/04/18 07:12:39;;;;;;;18.10;12.15;;;;;;;10.36;62.39;99897.16;5050433;28;20032;-23
2021/04/18 07:15:05;;;;;;;28.45;22.80;;;;;;;10.84;61.61;99912.41;5050297;28;20029;-21
2021/04/18 07:17:31;;;;;;;23.10;13.15;;;;;;;10.68;62.38;99923.66;5032612;28;20510;-21
2021/04/18 07:20:26;;;;;;;22.95;15.05;;;;;;;10.70;62.95;99932.25;5050545;28;20021;-21
2021/04/18 07:22:51;;;;;;;23.77;13.25;;;;;;;10.72;63.07;99924.84;5028746;28;20420;-22
2021/04/18 07:25:17;;;;;;;23.58;15.88;;;;;;;10.83;63.17;99921.44;5032744;28;20029;-22
2021/04/18 07:27:52;;;;;;;24.10;15.68;;;;;;;10.91;62.18;99941.69;5050308;28;20033;-21
2021/04/18 07:30:26;;;;;;;23.55;16.30;;;;;;;11.28;61.72;99920.25;5050039;28;20029;-22
2021/04/18 07:33:05;;;;;;;26.02;19.33;;;;;;;11.19;61.13;99917.06;5015516;28;20095;-21
2021/04/18 07:35:34;;;;;;;28.10;20.38;;;;;;;11.60;59.83;99910.09;5049953;28;20035;-21
2021/04/18 07:38:35;;;;;;;28.98;21.52;;;;;;;11.58;60.46;99928.22;5049986;28;20037;-21
2021/04/18 07:41:21;;;;;;;20.63;14.90;;;;;;;11.48;61.77;99927.16;4949524;28;20038;-21
2021/04/18 07:43:47;;;;;;;21.95;16.17;;;;;;;12.11;60.98;99939.13;5042861;28;20413;-21
2021/04/18 07:46:13;;;;;;;24.92;17.90;;;;;;;12.06;59.96;99924.59;5049593;28;20025;-22
2021/04/18 07:48:39;;;;;;;23.48;17.48;;;;;;;11.97;60.07;99931.38;5050047;28;20036;-21
2021/04/18 07:51:05;;;;;;;21.30;15.52;;;;;;;11.50;60.61;99904.50;5049613;28;20505;-20
2021/04/18 07:53:30;;;;;;;25.35;18.35;;;;;;;11.90;61.55;99930.63;5031904;28;20428;-20
2021/04/18 07:55:56;;;;;;;37.80;26.20;;;;;;;11.47;60.47;99913.00;5049753;28;20477;-21
2021/04/18 07:58:21;;;;;;;29.85;20.00;;;;;;;11.81;60.58;99931.97;5049716;28;20037;-20
2021/04/18 08:00:47;;;;;;;34.72;22.27;;;;;;;11.76;60.17;99915.84;5031752;28;20056;-20
2021/04/18 08:03:13;;;;;;;34.33;20.38;;;;;;;11.63;60.36;99920.34;5049535;28;20075;-20
2021/04/18 08:05:39;;;;;;;24.90;15.65;;;;;;;11.96;59.24;99921.69;5031938;28;20033;-21
2021/04/18 08:08:05;;;;;;;25.00;17.20;;;;;;;12.14;59.57;99928.00;5031829;28;20029;-21
2021/04/18 08:10:33;;;;;;;25.20;17.77;;;;;;;11.95;60.68;99922.75;5049137;28;20116;-20
2021/04/18 08:13:21;;;;;;;24.63;16.92;;;;;;;11.82;60.20;99914.91;5049329;28;20021;-20
2021/04/18 08:15:52;;;;;;;27.33;19.23;;;;;;;12.21;58.57;99920.66;5049489;28;20504;-21
2021/04/18 08:18:18;;;;;;;26.83;17.38;;;;;;;12.86;58.00;99904.38;5047864;28;20033;-20
2021/04/18 08:20:44;;;;;;;26.23;17.30;;;;;;;13.27;56.56;99910.50;5031489;28;20949;-21
2021/04/18 08:23:15;;;;;;;22.73;16.42;;;;;;;13.29;54.99;99901.44;5049536;28;20706;-21
2021/04/18 08:26:06;;;;;;;26.23;19.85;;;;;;;12.52;58.43;99908.75;5049311;28;20029;-20
2021/04/18 08:28:32;;;;;;;26.92;18.08;;;;;;;13.04;57.31;99899.91;5049062;28;20032;-21
2021/04/18 08:31:00;;;;;;;31.85;19.27;;;;;;;13.32;57.38;99895.59;5049128;28;20507;-21
2021/04/18 08:33:38;;;;;;;20.80;16.67;;;;;;;13.46;55.52;99884.38;5048917;28;20086;-21
2021/04/18 08:36:23;;;;;;;22.25;17.42;;;;;;;13.27;55.36;99875.69;5049075;28;20506;-22
2021/04/18 08:39:00;;;;;;;30.65;25.25;;;;;;;13.17;55.48;99896.91;5048987;28;20564;-21
2021/04/18 08:41:42;;;;;;;56.92;38.80;;;;;;;13.56;56.16;99899.78;5048928;28;20484;-20
2021/04/18 08:44:37;;;;;;;26.02;18.00;;;;;;;13.70;55.20;99896.78;5048632;28;20028;-20
2021/04/18 08:47:07;;;;;;;36.38;28.92;;;;;;;13.71;54.85;99885.00;5048697;28;20033;-20
2021/04/18 08:49:40;;;;;;;30.92;23.23;;;;;;;13.70;54.62;99884.19;5048650;28;20033;-21
2021/04/18 08:52:06;;;;;;;25.65;17.27;;;;;;;13.62;55.30;99888.09;5030453;28;20139;-20
2021/04/18 08:54:40;;;;;;;28.30;23.35;;;;;;;13.85;54.47;99887.13;5048590;28;20021;-21
2021/04/18 08:57:10;;;;;;;36.90;33.08;;;;;;;13.69;55.85;99879.91;5048698;28;20029;-21
2021/04/18 08:59:36;;;;;;;29.52;21.38;;;;;;;13.66;56.61;99883.88;5048536;28;20032;-20
2021/04/18 09:02:11;;;;;;;30.52;26.40;;;;;;;12.75;58.82;99873.13;5048652;28;20028;-21
2021/04/18 09:04:44;;;;;;;24.70;17.58;;;;;;;12.63;58.92;99893.75;5048433;28;20032;-20
2021/04/18 09:07:17;;;;;;;22.63;15.38;;;;;;;12.90;59.23;99919.97;5048584;28;20622;-20
2021/04/18 09:09:43;;;;;;;27.05;17.15;;;;;;;12.92;58.25;99915.19;5048677;28;20025;-20
2021/04/18 09:12:09;;;;;;;29.38;20.05;;;;;;;12.75;57.95;99902.56;5048034;28;20032;-21
2021/04/18 09:14:36;;;;;;;23.80;18.85;;;;;;;12.62;57.43;99890.25;5048411;28;20492;-21
2021/04/18 09:17:16;;;;;;;23.92;16.10;;;;;;;12.81;59.14;99898.09;5047870;28;20076;-21
2021/04/18 09:19:46;;;;;;;29.55;23.30;;;;;;;13.22;58.36;99910.41;5048013;28;20033;-21
2021/04/18 09:22:14;;;;;;;22.30;16.52;;;;;;;12.75;58.63;99905.25;5047793;28;20091;-21
2021/04/18 09:24:49;;;;;;;32.90;19.30;;;;;;;12.52;60.29;99918.66;5048045;28;20033;-20
2021/04/18 09:27:26;;;;;;;26.92;18.33;;;;;;;12.84;58.39;99924.41;5048050;28;20044;-20
2021/04/18 09:29:54;;;;;;;30.42;18.42;;;;;;;13.15;57.82;99933.03;5047457;28;20029;-20
2021/04/18 09:32:24;;;;;;;27.27;17.85;;;;;;;13.10;57.47;99928.41;5047580;28;20469;-20
2021/04/18 09:34:50;;;;;;;35.33;22.75;;;;;;;13.03;59.01;99917.81;5030164;28;20068;-21
2021/04/18 09:37:23;;;;;;;26.02;18.13;;;;;;;13.02;58.01;99918.88;5047816;28;20116;-20
2021/04/18 09:39:51;;;;;;;31.17;21.55;;;;;;;13.01;58.94;99935.97;5014372;28;20068;-21
2021/04/18 09:42:17;;;;;;;25.77;18.10;;;;;;;13.18;57.87;99936.06;5047296;28;20382;-19
2021/04/18 09:44:45;;;;;;;30.17;18.48;;;;;;;13.35;58.02;99924.59;5013596;28;20826;-22
2021/04/18 09:47:24;;;;;;;25.45;17.77;;;;;;;12.93;58.21;99928.31;5047634;28;20614;-21
2021/04/18 09:49:55;;;;;;;22.00;16.50;;;;;;;13.50;57.01;99916.81;5047597;28;20094;-21
2021/04/18 09:52:25;;;;;;;24.15;18.08;;;;;;;13.52;56.96;99925.41;5030112;28;20061;-21
2021/04/18 09:54:51;;;;;;;23.83;16.58;;;;;;;13.54;58.01;99939.38;5029736;28;20025;-21
2021/04/18 09:57:18;;;;;;;33.42;24.20;;;;;;;13.89;56.16;99930.31;5029431;28;20071;-23
2021/04/18 09:59:43;;;;;;;33.13;22.98;;;;;;;13.70;58.50;99910.19;5047527;28;20059;-23
2021/04/18 10:02:13;;;;;;;27.73;20.08;;;;;;;13.48;57.26;99921.59;5047109;28;20024;-23
2021/04/18 10:04:39;;;;;;;33.35;21.70;;;;;;;13.41;58.43;99907.56;5047226;28;20052;-23
2021/04/18 10:07:04;;;;;;;25.92;19.02;;;;;;;13.90;57.64;99905.16;5047213;28;20055;-24
2021/04/18 10:09:49;;;;;;;30.35;19.90;;;;;;;14.53;54.64;99915.69;5047003;28;20086;-23
2021/04/18 10:12:15;;;;;;;25.45;19.95;;;;;;;14.50;55.72;99908.94;5047024;28;20043;-23
2021/04/18 10:14:41;;;;;;;26.45;19.98;;;;;;;14.61;54.37;99905.38;5029570;28;20029;-23
2021/04/18 10:17:07;;;;;;;25.33;20.00;;;;;;;14.86;51.90;99902.16;5029614;28;20025;-23
2021/04/18 10:19:32;;;;;;;33.13;22.83;;;;;;;14.58;53.76;99897.00;5029351;28;20416;-24
2021/04/18 10:22:02;;;;;;;26.95;20.25;;;;;;;14.34;55.00;99910.59;5029161;28;20450;-24
2021/04/18 10:24:34;;;;;;;36.65;27.75;;;;;;;14.35;56.57;99893.47;5046724;28;20082;-24
2021/04/18 10:27:00;;;;;;;35.88;23.73;;;;;;;14.66;54.25;99907.28;5047360;28;20036;-24
2021/04/18 10:29:26;;;;;;;29.63;20.05;;;;;;;14.45;55.01;99890.09;5046964;28;20028;-23
2021/04/18 10:31:51;;;;;;;29.25;23.02;;;;;;;14.93;54.37;99903.84;5046839;28;20083;-24
2021/04/18 10:34:17;;;;;;;33.58;24.38;;;;;;;14.43;56.98;99892.22;5046789;28;20025;-23
2021/04/18 10:36:42;;;;;;;27.73;19.27;;;;;;;14.24;53.86;99889.84;5047140;28;20044;-23
2021/04/18 10:39:08;;;;;;;29.70;21.63;;;;;;;14.09;56.74;99875.38;5029054;28;20029;-24
2021/04/18 10:41:33;;;;;;;20.10;16.67;;;;;;;14.16;54.68;99892.94;5031329;28;20025;-24
2021/04/18 10:43:59;;;;;;;22.35;16.42;;;;;;;14.19;54.47;99876.34;5050953;28;20021;-23
2021/04/18 10:46:25;;;;;;;28.75;24.85;;;;;;;14.82;53.97;99906.41;5050758;28;20037;-23
2021/04/18 10:48:50;;;;;;;23.70;18.33;;;;;;;15.09;51.70;99902.16;5033196;28;20064;-23
2021/04/18 10:51:17;;;;;;;21.35;16.90;;;;;;;14.96;53.60;99895.31;5051076;28;20103;-23
2021/04/18 10:53:43;;;;;;;21.00;17.05;;;;;;;14.61;53.58;99885.78;5050966;28;20131;-23
2021/04/18 10:56:08;;;;;;;26.83;21.40;;;;;;;14.78;52.63;99888.38;5050795;28;20140;-23
2021/04/18 10:58:34;;;;;;;24.63;17.20;;;;;;;14.89;51.00;99905.41;5050998;28;20852;-23
2021/04/18 11:00:59;;;;;;;24.33;18.58;;;;;;;15.41;50.24;99896.84;5050862;28;20036;-24
2021/04/18 11:03:25;;;;;;;22.58;16.17;;;;;;;15.29;51.86;99885.44;5050682;28;20042;-23
2021/04/18 11:05:51;;;;;;;24.90;19.15;;;;;;;15.31;53.83;99884.09;5050896;28;20040;-23
2021/04/18 11:08:17;;;;;;;23.38;19.98;;;;;;;15.52;52.15;99879.72;5050072;28;20024;-23
2021/04/18 11:10:43;;;;;;;28.77;21.20;;;;;;;15.29;52.07;99866.63;5050413;28;20511;-24
2021/04/18 11:13:08;;;;;;;18.98;15.23;;;;;;;15.03;52.20;99869.06;5050476;28;20021;-24
2021/04/18 11:15:34;;;;;;;22.27;18.83;;;;;;;14.83;52.29;99862.41;5050386;28;20481;-24
2021/04/18 11:17:59;;;;;;;22.83;17.48;;;;;;;15.31;52.99;99856.44;5050254;28;20459;-23
2021/04/18 11:20:26;;;;;;;23.77;17.88;;;;;;;16.33;49.72;99856.34;5050184;28;20041;-23
2021/04/18 11:22:52;;;;;;;22.00;17.38;;;;;;;16.10;50.71;99874.53;5050008;28;20024;-24
2021/04/18 11:25:17;;;;;;;28.98;19.80;;;;;;;15.91;50.76;99868.75;5050389;28;20048;-24